createdAt,value
2023-03-23T05:30:04.026Z,49.5057
2023-03-23T15:04:09.765Z,41.9025
2023-03-23T15:05:01.900Z,43.5540
2023-03-23T15:09:00.166Z,39.7281
2023-03-23T15:09:52.510Z,42.2147
2023-03-23T15:10:53.612Z,42.9809
2023-03-23T15:11:54.707Z,42.9977
2023-03-23T15:12:55.886Z,42.8054
2023-03-23T15:13:56.940Z,42.6285
2023-03-23T15:14:58.227Z,42.4620
2023-03-23T15:15:59.174Z,42.4973
2023-03-23T15:17:00.302Z,42.6789
2023-03-23T15:18:01.399Z,42.5297
2023-03-23T15:19:02.530Z,42.3786
2023-03-23T15:20:03.651Z,42.2223
2023-03-23T15:21:04.753Z,41.9392
2023-03-23T15:22:05.846Z,42.0739
2023-03-23T15:23:06.974Z,42.4673
2023-03-23T15:24:08.063Z,42.2589
2023-03-23T15:25:09.225Z,41.9024
2023-03-23T15:26:10.289Z,41.4266
2023-03-23T15:28:22.461Z,37.2748
2023-03-23T15:29:14.786Z,40.1768
2023-03-23T15:30:16.980Z,41.1103
2023-03-23T15:31:17.017Z,41.5164
2023-03-23T15:32:18.158Z,41.4926
2023-03-23T15:33:19.244Z,41.3948
2023-03-23T15:34:21.393Z,41.3382
2023-03-23T15:35:21.534Z,41.3971
2023-03-23T15:36:22.643Z,41.3644
2023-03-23T15:37:23.728Z,41.3703
2023-03-23T15:38:24.825Z,41.4137
2023-03-23T15:39:25.927Z,41.4707
2023-03-23T15:40:27.103Z,41.5535
2023-03-23T15:41:28.165Z,41.5959
2023-03-23T15:42:30.119Z,41.5671
2023-03-23T15:43:30.392Z,41.5785
2023-03-23T15:44:31.520Z,41.6057
2023-03-23T15:45:32.661Z,41.8085
2023-03-23T15:46:33.746Z,41.6857
2023-03-23T15:47:34.840Z,41.7746
2023-03-23T15:48:35.967Z,41.8479
2023-03-23T15:49:37.080Z,41.6524
2023-03-23T15:50:38.260Z,41.1778
2023-03-23T15:51:39.301Z,40.9458
2023-03-23T15:52:40.436Z,41.3430
2023-03-23T15:53:41.533Z,41.3605
2023-03-23T15:54:42.664Z,41.5679
2023-03-23T15:55:43.915Z,41.6730
2023-03-23T15:56:44.903Z,41.6983
2023-03-23T15:58:47.159Z,41.3036
2023-03-23T15:58:47.159Z,41.5503
2023-03-23T15:59:48.258Z,41.1848
2023-03-23T16:00:49.421Z,41.2093
2023-03-23T16:01:50.490Z,41.2585
2023-03-23T16:02:51.657Z,41.3694
2023-03-23T16:03:52.714Z,41.2769
2023-03-23T16:04:53.833Z,41.1918
2023-03-23T16:05:54.984Z,41.2075
2023-03-23T16:06:56.080Z,41.2561
2023-03-23T16:07:57.181Z,41.2523
2023-03-23T16:08:58.271Z,41.3021
2023-03-23T16:09:59.408Z,41.3714
2023-03-23T16:11:00.571Z,41.4167
2023-03-23T16:12:01.632Z,41.5530
2023-03-23T16:13:02.730Z,41.3866
2023-03-23T16:14:03.864Z,41.2877
2023-03-23T16:15:04.956Z,41.1327
2023-03-23T16:16:06.132Z,41.0680
2023-03-23T16:17:07.241Z,41.0356
2023-03-23T16:18:08.327Z,40.9549
2023-03-23T16:19:09.375Z,40.9590
2023-03-23T16:20:10.493Z,41.1064
2023-03-23T16:21:11.671Z,41.2415
2023-03-23T16:22:12.700Z,41.3150
2023-03-23T16:23:13.790Z,41.5271
2023-03-23T16:24:14.914Z,41.5261
2023-03-23T16:25:16.010Z,41.7538
2023-03-23T16:26:17.165Z,41.8566
2023-03-23T16:27:18.201Z,41.9634
2023-03-23T16:28:19.314Z,42.0222
2023-03-23T16:29:33.745Z,42.0992
2023-03-23T16:30:22.565Z,42.0264
2023-03-23T16:31:22.691Z,42.0567
2023-03-23T16:32:23.740Z,42.1178
2023-03-23T16:33:24.852Z,42.0702
2023-03-23T16:34:25.946Z,42.0984
2023-03-23T16:35:27.161Z,42.1145
2023-03-23T16:36:28.248Z,42.1541
2023-03-23T16:37:29.246Z,42.1303
2023-03-23T16:38:30.366Z,42.0996
2023-03-23T16:39:31.453Z,42.1018
2023-03-23T16:40:32.575Z,42.0851
2023-03-23T16:41:33.753Z,42.0998
2023-03-23T16:42:34.795Z,42.0837
2023-03-23T16:43:35.870Z,42.0820
2023-03-23T16:44:36.989Z,41.9890
2023-03-23T16:45:38.230Z,41.9689
2023-03-23T16:46:39.265Z,41.9434
2023-03-23T16:47:40.331Z,41.9364
2023-03-23T16:48:41.419Z,41.9766
2023-03-23T16:49:42.494Z,41.9439
2023-03-23T16:50:43.624Z,41.9454
2023-03-23T16:51:44.749Z,42.0398
2023-03-23T16:52:46.292Z,42.1900
2023-03-23T16:53:46.922Z,42.2269
2023-03-23T16:54:48.033Z,42.1934
2023-03-23T16:55:49.120Z,42.1975
2023-03-23T16:56:50.316Z,42.2069
2023-03-23T16:57:51.547Z,42.1560
2023-03-23T16:58:52.447Z,42.1593
2023-03-23T16:59:53.533Z,42.2068
2023-03-23T17:00:54.660Z,42.1904
2023-03-23T17:01:55.830Z,42.1886
2023-03-23T17:02:56.949Z,42.2324
2023-03-23T17:03:58.033Z,42.2601
2023-03-23T17:04:59.089Z,42.5447
2023-03-23T17:06:00.162Z,42.4080
2023-03-23T17:07:01.342Z,42.3445
2023-03-23T17:08:02.379Z,42.3620
2023-03-23T17:09:03.501Z,42.3328
2023-03-23T17:10:04.595Z,42.3779
2023-03-23T17:11:05.712Z,42.3143
2023-03-23T17:12:06.864Z,42.2883
2023-03-23T17:13:07.913Z,42.3257
2023-03-23T17:14:09.004Z,42.3095
2023-03-23T17:15:10.129Z,42.2762
2023-03-23T17:16:11.260Z,42.2400
2023-03-23T17:17:12.385Z,42.2989
2023-03-23T17:18:13.434Z,42.2251
2023-03-23T17:19:14.552Z,42.2702
2023-03-23T17:20:15.659Z,42.3517
2023-03-23T17:21:16.755Z,42.2977
2023-03-23T17:22:18.000Z,42.2628
2023-03-23T17:23:18.976Z,42.2920
2023-03-23T17:24:20.083Z,42.2467
2023-03-23T17:25:21.188Z,42.2154
2023-03-23T17:26:22.269Z,42.2357
2023-03-23T17:27:23.425Z,42.2330
2023-03-23T17:28:24.538Z,42.1984
2023-03-23T17:29:25.620Z,42.2559
2023-03-23T17:30:26.691Z,42.2359
2023-03-23T17:31:27.861Z,42.2135
2023-03-23T17:32:29.061Z,42.2309
2023-03-23T17:33:30.019Z,42.1869
2023-03-23T17:34:31.216Z,42.1871
2023-03-23T17:35:32.229Z,42.1608
2023-03-23T17:36:33.343Z,42.2427
2023-03-23T17:37:34.627Z,42.2239
2023-03-23T17:38:35.525Z,42.2123
2023-03-23T17:39:42.708Z,42.2144
2023-03-23T17:40:38.746Z,42.2269
2023-03-23T17:41:38.853Z,42.1527
2023-03-23T17:42:39.994Z,42.1788
2023-03-23T17:43:41.089Z,42.2136
2023-03-23T17:44:42.149Z,42.2043
2023-03-23T17:45:46.547Z,42.2764
2023-03-23T17:46:44.412Z,42.5762
2023-03-23T17:47:45.539Z,42.6195
2023-03-23T17:48:46.570Z,42.3725
2023-03-23T17:49:47.694Z,42.4892
2023-03-23T17:50:48.796Z,42.7423
2023-03-23T17:51:49.938Z,42.7982
2023-03-23T17:52:51.073Z,42.6832
2023-03-23T17:53:52.131Z,42.8158
2023-03-23T17:54:53.215Z,42.7626
2023-03-23T17:55:54.336Z,42.7641
2023-03-23T17:56:55.457Z,42.8172
2023-03-23T17:57:56.595Z,42.7608
2023-03-23T17:58:57.640Z,42.6654
2023-03-23T17:59:58.776Z,42.6302
2023-03-23T18:00:59.881Z,42.5936
2023-03-23T18:02:01.025Z,42.5904
2023-03-23T18:03:02.132Z,42.5451
2023-03-23T18:04:03.193Z,42.4872
2023-03-23T18:05:04.270Z,42.4574
2023-03-23T18:06:05.401Z,42.4135
2023-03-23T18:07:06.484Z,42.3297
2023-03-23T18:08:07.621Z,42.3416
2023-03-23T18:09:08.681Z,42.4141
2023-03-23T18:10:09.788Z,42.4849
2023-03-23T18:11:10.876Z,42.4909
2023-03-23T18:12:11.991Z,42.4958
2023-03-23T18:13:13.121Z,42.4222
2023-03-23T18:14:14.192Z,42.4201
2023-03-23T18:15:15.307Z,42.5761
2023-03-23T18:16:16.406Z,42.4615
2023-03-23T18:17:17.477Z,42.3586
2023-03-23T18:18:18.646Z,42.2473
2023-03-23T18:19:19.677Z,42.1219
2023-03-23T18:20:20.878Z,42.2151
2023-03-23T18:21:21.882Z,42.2148
2023-03-23T18:22:23.002Z,42.1595
2023-03-23T18:23:24.428Z,42.4096
2023-03-23T18:24:25.193Z,42.1886
2023-03-23T18:25:26.279Z,42.1738
2023-03-23T18:26:27.401Z,42.2795
2023-03-23T18:37:11.795Z,41.8443
2023-03-23T18:38:04.884Z,44.0448
2023-03-23T18:39:05.996Z,44.3783
2023-03-23T18:40:07.107Z,44.3819
2023-03-23T18:42:25.578Z,39.7417
2023-03-23T18:43:17.866Z,42.5776
2023-03-23T18:44:19.005Z,43.0704
2023-03-23T18:45:20.085Z,43.2918
2023-03-23T18:46:21.245Z,43.3382
2023-03-23T18:47:22.358Z,43.3725
2023-03-23T18:49:15.075Z,38.9356
2023-03-23T18:51:33.343Z,39.7283
2023-03-23T18:52:24.980Z,43.2853
2023-03-23T18:53:26.084Z,44.5710
2023-03-23T18:54:27.275Z,45.3086
2023-03-23T18:55:28.301Z,45.5332
2023-03-23T18:56:29.458Z,45.9407
2023-03-23T18:57:30.531Z,46.0765
2023-03-23T19:01:41.645Z,41.2270
2023-03-23T19:04:06.901Z,39.9880
2023-03-23T19:04:56.403Z,42.5336
2023-03-23T19:05:57.502Z,43.2832
2023-03-23T19:06:58.980Z,43.4700
2023-03-23T19:07:59.723Z,43.3710
2023-03-23T19:09:00.877Z,43.1707
2023-03-23T19:10:01.949Z,42.9982
2023-03-23T19:11:03.091Z,42.9714
2023-03-23T19:13:35.678Z,39.0276
2023-03-23T19:14:27.605Z,41.7099
2023-03-23T19:15:28.747Z,42.5281
2023-03-23T19:17:16.534Z,38.8294
2023-03-23T19:19:20.767Z,38.9491
2023-03-23T19:26:51.817Z,39.1091
2023-03-23T19:28:18.178Z,42.3315
2023-03-23T19:29:23.335Z,43.6554
2023-03-23T19:29:47.134Z,44.9869
2023-03-23T19:30:47.308Z,45.2105
2023-03-23T19:31:48.403Z,45.6339
2023-03-23T19:32:49.551Z,46.0136
2023-03-23T19:33:50.609Z,46.5793
2023-03-23T19:34:51.746Z,46.8966
2023-03-23T19:36:05.667Z,46.8443
2023-03-23T19:37:03.309Z,46.9891
2023-03-23T19:37:56.154Z,47.4882
2023-03-23T19:38:56.190Z,46.4181
2023-03-23T19:39:58.185Z,45.4367
2023-03-23T19:40:58.538Z,44.6669
2023-03-23T19:41:59.503Z,44.5196
2023-03-23T19:43:00.683Z,44.0080
2023-03-23T19:45:22.332Z,39.1939
2023-03-23T19:46:14.133Z,42.1795
2023-03-23T19:47:15.100Z,43.0049
2023-03-23T19:48:16.386Z,43.3031
2023-03-23T19:49:17.322Z,43.2789
2023-03-23T19:50:18.360Z,43.2255
2023-03-23T19:51:19.509Z,43.1484
2023-03-23T19:52:20.588Z,43.0383
2023-03-23T19:53:21.853Z,42.9372
2023-03-23T19:54:22.825Z,42.9526
2023-03-23T19:55:23.963Z,42.9389
2023-03-23T20:06:07.820Z,42.8343
2023-03-23T20:07:00.825Z,44.7180
2023-03-23T20:09:07.114Z,40.7426
2023-03-23T20:09:58.133Z,43.8057
2023-03-23T20:10:59.234Z,44.3493
2023-03-23T20:12:01.227Z,44.3653
2023-03-23T20:13:01.479Z,44.3137
2023-03-23T20:14:02.560Z,44.2643
2023-03-23T20:15:04.093Z,44.1918
2023-03-23T20:17:18.821Z,40.1287
2023-03-23T20:45:57.014Z,42.9495
2023-03-23T20:46:48.500Z,45.3076
2023-03-23T20:47:49.636Z,44.9347
2023-03-23T20:48:50.755Z,44.5060
2023-03-23T20:50:57.357Z,40.0567
2023-03-23T20:51:46.916Z,42.6605
2023-03-23T20:52:48.032Z,43.1005
2023-03-23T20:53:49.122Z,43.1495
2023-03-23T20:54:50.259Z,43.1232
2023-03-23T20:55:51.355Z,42.8950
2023-03-23T20:56:53.750Z,42.7182
2023-03-23T20:57:53.577Z,42.6075
2023-03-23T20:58:54.715Z,42.5568
2023-03-23T20:59:55.837Z,42.5318
2023-03-23T21:00:56.954Z,42.4684
2023-03-23T21:01:58.075Z,42.4384
2023-03-23T21:02:59.231Z,42.4193
2023-03-23T21:04:00.276Z,42.3580
2023-03-23T21:05:01.397Z,42.3278
2023-03-23T21:06:02.493Z,42.2995
2023-03-23T21:07:03.663Z,42.2700
2023-03-23T21:08:04.732Z,42.2459
2023-03-23T21:09:05.847Z,42.2526
2023-03-23T21:10:06.938Z,42.4593
2023-03-23T21:11:08.077Z,42.6550
2023-03-23T21:12:09.214Z,43.0080
2023-03-23T21:13:10.318Z,44.4698
2023-03-23T21:14:11.421Z,46.4213
2023-03-23T21:15:12.537Z,47.4689
2023-03-23T21:16:13.637Z,47.1654
2023-03-23T21:17:14.810Z,47.2112
2023-03-23T21:18:15.858Z,47.0724
2023-03-23T21:19:16.996Z,46.7572
2023-03-23T21:20:18.096Z,46.3860
2023-03-23T21:21:19.218Z,46.0388
2023-03-23T21:22:20.409Z,46.2189
2023-03-23T21:23:21.437Z,46.7306
2023-03-23T21:24:22.530Z,47.4654
2023-03-23T21:25:33.812Z,47.9798
2023-03-23T21:26:25.746Z,48.6433
2023-03-23T21:27:25.918Z,49.1871
2023-03-23T21:28:26.972Z,49.5985
2023-03-23T21:29:28.523Z,50.2064
2023-03-23T21:30:29.190Z,50.8192
2023-03-23T21:31:30.288Z,51.5648
2023-03-23T21:32:31.483Z,51.9596
2023-03-23T21:33:32.501Z,51.2664
2023-03-23T21:34:33.591Z,50.4298
2023-03-23T21:35:34.725Z,49.9450
2023-03-23T21:36:35.808Z,49.5642
2023-03-23T21:37:37.001Z,49.7604
2023-03-23T21:38:38.023Z,49.9671
2023-03-23T21:39:39.188Z,50.5914
2023-03-23T21:40:40.238Z,50.0526
2023-03-23T21:41:41.926Z,48.8960
2023-03-23T21:42:42.518Z,48.3204
2023-03-23T21:43:43.573Z,47.7771
2023-03-23T21:44:44.676Z,47.2451
2023-03-23T21:45:45.794Z,46.7041
2023-03-23T21:46:46.882Z,46.1236
2023-03-23T21:47:48.066Z,45.7004
2023-03-23T21:48:49.087Z,45.4255
2023-03-23T21:49:50.210Z,45.2351
2023-03-23T21:50:51.319Z,45.1229
2023-03-23T21:51:52.445Z,44.9888
2023-03-23T21:52:53.570Z,44.9107
2023-03-23T21:53:54.654Z,44.8855
2023-03-23T21:54:55.733Z,44.7389
2023-03-23T21:55:56.863Z,44.5887
2023-03-23T21:56:57.985Z,44.4484
2023-03-23T21:57:59.125Z,44.3293
2023-03-23T21:59:00.161Z,44.2697
2023-03-23T22:00:01.289Z,44.1648
2023-03-23T22:01:02.551Z,44.1220
2023-03-23T22:02:03.522Z,44.0912
2023-03-23T22:03:04.977Z,44.1644
2023-03-23T22:04:05.729Z,44.2221
2023-03-23T22:05:06.825Z,44.1501
2023-03-23T22:06:07.962Z,44.0880
2023-03-23T22:07:09.039Z,44.1411
2023-03-23T22:08:10.215Z,44.0839
2023-03-23T22:09:11.262Z,44.0042
2023-03-23T22:10:12.373Z,43.9251
2023-03-23T22:11:13.455Z,43.8695
2023-03-23T22:12:14.591Z,43.7952
2023-03-23T22:13:15.733Z,43.7606
2023-03-23T22:14:16.802Z,43.7623
2023-03-23T22:15:17.885Z,43.7057
2023-03-23T22:16:19.042Z,43.7022
2023-03-23T22:17:20.106Z,43.6963
2023-03-23T22:18:21.325Z,43.7056
2023-03-23T22:19:22.317Z,43.7988
2023-03-23T22:20:23.443Z,43.7473
2023-03-23T22:21:24.538Z,43.7138
2023-03-23T22:22:25.654Z,43.7038
2023-03-23T22:23:26.803Z,43.7102
2023-03-23T22:24:27.870Z,43.7178
2023-03-23T22:25:28.974Z,43.7021
2023-03-23T22:26:30.119Z,43.7258
2023-03-23T22:27:31.175Z,43.7452
2023-03-23T22:28:32.341Z,43.7320
2023-03-23T22:29:33.398Z,43.7858
2023-03-23T22:30:34.513Z,43.7899
2023-03-23T22:31:35.667Z,43.7855
2023-03-23T22:32:36.795Z,43.8597
2023-03-23T22:33:37.868Z,43.7862
2023-03-23T22:34:38.932Z,43.8047
2023-03-23T22:35:40.130Z,43.7718
2023-03-23T22:36:41.158Z,43.7474
2023-03-23T22:37:42.248Z,43.7169
2023-03-23T22:38:43.488Z,43.7679
2023-03-23T22:39:44.471Z,43.7659
2023-03-23T22:40:45.753Z,43.8244
2023-03-23T22:41:46.681Z,43.7872
2023-03-23T22:42:47.798Z,43.8123
2023-03-23T22:43:48.927Z,43.8441
2023-03-23T22:44:50.075Z,43.8787
2023-03-23T22:45:51.132Z,43.8409
2023-03-23T22:46:52.225Z,43.8466
2023-03-23T22:47:53.357Z,43.8732
2023-03-23T22:48:54.542Z,43.8401
2023-03-23T22:49:55.534Z,43.8160
2023-03-23T22:50:56.655Z,43.8076
2023-03-23T22:51:57.757Z,43.8514
2023-03-23T22:52:58.869Z,43.8847
2023-03-23T22:54:00.002Z,43.8892
2023-03-23T22:55:01.093Z,43.8831
2023-03-23T22:56:02.177Z,43.8981
2023-03-23T22:57:03.368Z,43.9415
2023-03-23T22:58:04.397Z,43.9550
2023-03-23T22:59:05.582Z,43.9585
2023-03-23T23:00:06.601Z,44.0028
2023-03-23T23:01:07.821Z,44.0159
2023-03-23T23:02:08.815Z,44.0750
2023-03-23T23:03:09.938Z,44.0533
2023-03-23T23:04:11.140Z,44.1024
2023-03-23T23:05:12.165Z,44.0691
2023-03-23T23:06:13.259Z,44.0946
2023-03-23T23:07:14.395Z,44.1875
2023-03-23T23:08:17.766Z,44.1826
2023-03-23T23:09:16.634Z,44.2003
2023-03-23T23:10:17.669Z,44.2039
2023-03-23T23:11:18.822Z,44.2377
2023-03-23T23:12:19.900Z,44.3111
2023-03-23T23:13:21.018Z,44.3505
2023-03-23T23:14:22.301Z,44.3784
2023-03-23T23:15:23.237Z,44.4216
2023-03-23T23:16:24.410Z,44.4676
2023-03-23T23:17:25.495Z,44.4553
2023-03-23T23:18:26.560Z,44.4958
2023-03-23T23:19:27.850Z,44.5196
2023-03-23T23:20:28.770Z,44.5135
2023-03-23T23:21:29.899Z,44.5408
2023-03-23T23:22:30.992Z,44.5950
2023-03-23T23:23:32.121Z,44.6319
2023-03-23T23:24:33.241Z,44.5622
2023-03-23T23:25:34.334Z,44.5572
2023-03-23T23:26:35.431Z,44.6413
2023-03-23T23:27:36.550Z,44.6811
2023-03-23T23:28:37.640Z,44.6473
2023-03-23T23:29:38.800Z,44.6514
2023-03-23T23:30:39.882Z,44.6663
2023-03-23T23:31:40.991Z,44.6608
2023-03-23T23:32:42.122Z,44.6870
2023-03-23T23:33:43.207Z,44.6660
2023-03-23T23:34:44.369Z,44.7080
2023-03-23T23:35:45.477Z,44.7296
2023-03-23T23:36:46.522Z,44.7510
2023-03-23T23:37:47.648Z,44.7379
2023-03-23T23:38:48.737Z,44.6967
2023-03-23T23:39:49.895Z,44.6931
2023-03-23T23:40:50.953Z,44.7132
2023-03-23T23:41:52.094Z,44.7218
2023-03-23T23:42:53.166Z,44.7058
2023-03-23T23:43:54.290Z,44.7422
2023-03-23T23:44:55.402Z,44.7884
2023-03-23T23:45:56.526Z,44.8268
2023-03-23T23:46:57.618Z,44.8123
2023-03-23T23:47:58.756Z,44.8397
2023-03-23T23:48:59.838Z,44.8265
2023-03-23T23:50:00.971Z,44.8726
2023-03-23T23:51:02.038Z,44.8889
2023-03-23T23:52:03.156Z,44.9033
2023-03-23T23:53:04.251Z,44.9001
2023-03-23T23:54:05.377Z,44.9082
2023-03-23T23:55:06.481Z,44.8980
2023-03-23T23:56:07.576Z,44.9193
2023-03-23T23:57:08.712Z,44.8721
2023-03-23T23:58:09.799Z,44.9115
2023-03-23T23:59:10.893Z,44.9364
